Time;durP1;ratioP1;P1;durP2;ratioP2;P2;SDS_P1;SDS_P2;PMS_P1;PMS_P2;Temp;Humidity;BMP_temperature;BMP_pressure;BME280_temperature;BME280_humidity;BME280_pressure;Samples;Min_cycle;Max_cycle;Signal;HPM_P1;HPM_P2
2021/10/21 00:01:04;;;;;;;67.63;7.93;;;;;;;;;;5012874;28;20026;-92
2021/10/21 00:03:29;;;;;;;49.38;7.63;;;;;;;;;;4996935;28;20304;-92
2021/10/21 00:05:54;;;;;;;60.60;6.72;;;;;;;;;;4996605;28;20029;-92
2021/10/21 00:08:20;;;;;;;55.10;7.57;;;;;;;;;;5016882;28;20026;-92
2021/10/21 00:10:46;;;;;;;48.35;8.35;;;;;;;;;;5002501;28;20126;-92
2021/10/21 00:13:12;;;;;;;50.90;6.95;;;;;;;;;;5000975;28;20382;-92
2021/10/21 00:15:37;;;;;;;52.17;8.30;;;;;;;;;;5017052;28;20022;-92
2021/10/21 00:18:03;;;;;;;59.65;9.55;;;;;;;;;;5000629;28;20482;-92
2021/10/21 00:20:29;;;;;;;50.35;7.60;;;;;;;;;;4996948;28;20049;-92
2021/10/21 00:22:54;;;;;;;59.35;8.80;;;;;;;;;;5016768;28;20049;-91
2021/10/21 00:25:19;;;;;;;39.25;7.05;;;;;;;;;;5016723;28;20386;-92
2021/10/21 00:27:45;;;;;;;56.63;9.02;;;;;;;;;;5000007;28;20020;-92
2021/10/21 00:30:10;;;;;;;50.70;8.15;;;;;;;;;;5000272;28;20025;-91
2021/10/21 00:32:36;;;;;;;57.17;6.82;;;;;;;;;;4999969;28;20069;-92
2021/10/21 00:35:01;;;;;;;51.70;7.57;;;;;;;;;;4999528;28;20071;-91
2021/10/21 00:37:26;;;;;;;48.22;8.57;;;;;;;;;;4999730;28;20025;-91
2021/10/21 00:39:51;;;;;;;44.17;7.20;;;;;;;;;;4999337;28;20075;-92
2021/10/21 00:42:17;;;;;;;35.87;8.37;;;;;;;;;;4999447;28;20049;-92
2021/10/21 00:44:42;;;;;;;53.13;8.03;;;;;;;;;;5001752;28;20309;-92
2021/10/21 00:47:07;;;;;;;50.50;8.35;;;;;;;;;;4999883;28;20273;-91
2021/10/21 00:49:33;;;;;;;46.30;8.80;;;;;;;;;;5017081;28;20014;-92
2021/10/21 00:51:58;;;;;;;43.60;8.65;;;;;;;;;;4999434;28;20017;-91
2021/10/21 00:54:24;;;;;;;47.47;9.65;;;;;;;;;;5017060;28;20045;-91
2021/10/21 00:56:51;;;;;;;52.60;9.07;;;;;;;;;;4999281;28;20077;-92
2021/10/21 00:59:17;;;;;;;57.22;9.65;;;;;;;;;;4999142;28;20133;-91
2021/10/21 01:01:42;;;;;;;45.60;7.55;;;;;;;;;;4999084;28;20048;-91
2021/10/21 01:04:07;;;;;;;47.88;8.35;;;;;;;;;;5020875;28;20064;-90
2021/10/21 01:06:33;;;;;;;36.60;6.30;;;;;;;;;;4998789;28;20018;-90
2021/10/21 01:09:00;;;;;;;50.47;7.32;;;;;;;;;;5016743;28;20021;-91
2021/10/21 01:11:26;;;;;;;46.08;8.02;;;;;;;;;;5016732;28;20504;-91
2021/10/21 01:13:51;;;;;;;45.67;7.70;;;;;;;;;;4999164;28;20022;-91
2021/10/21 01:16:16;;;;;;;39.30;6.18;;;;;;;;;;4998464;28;20409;-91
2021/10/21 01:18:42;;;;;;;46.65;6.75;;;;;;;;;;4997820;28;20026;-91
2021/10/21 01:21:08;;;;;;;39.08;5.75;;;;;;;;;;5017047;28;20018;-91
2021/10/21 01:23:35;;;;;;;32.80;5.60;;;;;;;;;;5018559;28;20037;-91
2021/10/21 01:26:00;;;;;;;45.10;6.80;;;;;;;;;;4998583;28;20071;-91
2021/10/21 01:28:26;;;;;;;42.95;6.18;;;;;;;;;;5016400;28;20486;-91
2021/10/21 01:30:51;;;;;;;39.03;6.32;;;;;;;;;;4998611;28;20053;-92
2021/10/21 01:33:17;;;;;;;33.90;6.18;;;;;;;;;;4998674;28;20108;-92
2021/10/21 01:35:42;;;;;;;38.63;6.65;;;;;;;;;;5014900;28;20100;-92
2021/10/21 01:38:08;;;;;;;43.30;5.88;;;;;;;;;;4998356;28;20026;-92
2021/10/21 01:40:33;;;;;;;37.53;6.03;;;;;;;;;;5015866;28;20014;-92
2021/10/21 01:42:58;;;;;;;46.78;6.10;;;;;;;;;;5018174;28;20385;-92
2021/10/21 01:45:25;;;;;;;46.53;6.65;;;;;;;;;;5014744;28;20500;-91
2021/10/21 01:47:50;;;;;;;35.95;6.38;;;;;;;;;;4998070;28;20076;-92
2021/10/21 01:50:16;;;;;;;47.38;6.70;;;;;;;;;;4998231;28;20470;-91
2021/10/21 01:52:42;;;;;;;45.78;7.22;;;;;;;;;;4998256;28;20022;-91
2021/10/21 01:55:08;;;;;;;40.08;6.95;;;;;;;;;;4998024;28;20101;-92
2021/10/21 01:57:33;;;;;;;43.22;6.95;;;;;;;;;;5015617;28;20018;-92
2021/10/21 01:59:58;;;;;;;41.92;5.95;;;;;;;;;;5015339;28;20135;-92
2021/10/21 02:02:24;;;;;;;37.33;6.35;;;;;;;;;;5002281;28;20087;-92
2021/10/21 02:04:49;;;;;;;54.35;6.82;;;;;;;;;;4997863;28;20026;-92
2021/10/21 02:07:14;;;;;;;42.60;7.00;;;;;;;;;;4997955;28;20029;-92
2021/10/21 02:09:39;;;;;;;44.10;8.90;;;;;;;;;;4997761;28;21003;-92
2021/10/21 02:12:05;;;;;;;47.60;6.80;;;;;;;;;;4997764;28;20107;-91
2021/10/21 02:14:30;;;;;;;41.85;6.97;;;;;;;;;;5015561;28;20343;-92
2021/10/21 02:16:55;;;;;;;37.00;6.93;;;;;;;;;;4997588;28;20057;-92
2021/10/21 02:19:20;;;;;;;40.05;6.47;;;;;;;;;;4997446;28;20354;-91
2021/10/21 02:21:46;;;;;;;42.65;6.65;;;;;;;;;;4997688;28;20426;-91
2021/10/21 02:24:11;;;;;;;43.00;7.25;;;;;;;;;;4997621;28;20021;-92
2021/10/21 02:26:37;;;;;;;57.13;8.48;;;;;;;;;;5015094;28;20455;-92
2021/10/21 02:29:02;;;;;;;35.38;6.05;;;;;;;;;;4997492;28;20049;-92
2021/10/21 02:31:27;;;;;;;41.05;6.95;;;;;;;;;;4995553;28;20058;-93
2021/10/21 02:33:52;;;;;;;50.27;7.17;;;;;;;;;;4999032;28;20374;-92
2021/10/21 02:36:18;;;;;;;36.92;6.47;;;;;;;;;;4997513;28;20268;-92
2021/10/21 02:38:43;;;;;;;46.47;7.63;;;;;;;;;;4997379;28;20030;-92
2021/10/21 02:41:08;;;;;;;41.30;7.18;;;;;;;;;;4997230;28;20018;-92
2021/10/21 02:43:35;;;;;;;43.22;6.60;;;;;;;;;;5014942;28;20022;-92
2021/10/21 02:46:01;;;;;;;41.42;6.65;;;;;;;;;;4997087;28;20022;-92
2021/10/21 02:48:27;;;;;;;44.58;7.15;;;;;;;;;;4997337;28;20030;-91
2021/10/21 02:50:52;;;;;;;37.63;7.30;;;;;;;;;;4997038;28;20769;-92
2021/10/21 02:53:17;;;;;;;41.03;6.32;;;;;;;;;;4997218;28;20269;-92
2021/10/21 02:55:43;;;;;;;32.53;6.82;;;;;;;;;;4998552;28;20029;-92
2021/10/21 02:58:08;;;;;;;46.28;6.20;;;;;;;;;;5014665;28;20017;-92
2021/10/21 03:00:33;;;;;;;43.23;7.07;;;;;;;;;;4997001;28;20088;-92
2021/10/21 03:02:58;;;;;;;39.53;6.40;;;;;;;;;;4997162;28;20322;-92
2021/10/21 03:05:24;;;;;;;43.25;7.60;;;;;;;;;;5013335;28;20256;-92
2021/10/21 03:07:50;;;;;;;46.28;7.43;;;;;;;;;;4996903;28;20053;-92
2021/10/21 03:10:15;;;;;;;45.28;7.90;;;;;;;;;;4996991;28;20018;-92
2021/10/21 03:12:41;;;;;;;38.95;7.53;;;;;;;;;;4997810;28;20025;-91
2021/10/21 03:15:06;;;;;;;44.35;7.30;;;;;;;;;;5014625;28;20386;-92
2021/10/21 03:17:32;;;;;;;33.50;6.00;;;;;;;;;;5014198;28;20075;-92
2021/10/21 03:19:57;;;;;;;37.90;7.23;;;;;;;;;;5019119;28;20707;-91
2021/10/21 03:22:22;;;;;;;40.45;6.45;;;;;;;;;;4996561;28;20264;-91
2021/10/21 03:24:47;;;;;;;41.33;6.23;;;;;;;;;;5014112;28;20080;-92
2021/10/21 03:27:13;;;;;;;36.88;7.15;;;;;;;;;;5014255;28;20296;-91
2021/10/21 03:29:38;;;;;;;35.72;6.07;;;;;;;;;;4996320;28;20454;-91
2021/10/21 03:32:03;;;;;;;38.67;6.40;;;;;;;;;;4996502;28;20018;-91
2021/10/21 03:34:30;;;;;;;31.95;6.03;;;;;;;;;;4996777;28;20528;-91
2021/10/21 03:36:56;;;;;;;32.75;6.47;;;;;;;;;;5000668;28;20054;-91
2021/10/21 03:39:21;;;;;;;39.97;6.60;;;;;;;;;;5014009;28;20080;-91
2021/10/21 03:41:46;;;;;;;33.20;6.33;;;;;;;;;;4996116;28;20022;-91
2021/10/21 03:44:11;;;;;;;33.90;6.15;;;;;;;;;;5012691;28;20757;-91
2021/10/21 03:46:39;;;;;;;34.57;6.97;;;;;;;;;;4996537;28;20089;-91
2021/10/21 03:49:04;;;;;;;37.40;6.82;;;;;;;;;;4996399;28;20252;-91
2021/10/21 03:51:30;;;;;;;42.33;8.23;;;;;;;;;;4996502;28;20068;-92
2021/10/21 03:53:55;;;;;;;32.10;6.45;;;;;;;;;;4996348;28;20117;-92
2021/10/21 03:56:20;;;;;;;41.03;7.85;;;;;;;;;;4996309;28;20033;-92
2021/10/21 03:58:46;;;;;;;41.47;7.28;;;;;;;;;;4998874;28;20025;-91
2021/10/21 04:01:11;;;;;;;37.95;8.00;;;;;;;;;;5013699;28;20702;-92
2021/10/21 04:03:36;;;;;;;37.85;8.43;;;;;;;;;;4996553;28;20014;-92
2021/10/21 04:06:01;;;;;;;48.80;9.00;;;;;;;;;;4996371;28;20030;-92
2021/10/21 04:08:26;;;;;;;41.85;7.40;;;;;;;;;;4996413;28;20072;-92
2021/10/21 04:10:52;;;;;;;33.93;7.63;;;;;;;;;;5013735;28;20390;-91
2021/10/21 04:13:17;;;;;;;40.03;7.85;;;;;;;;;;4996251;28;20447;-92
2021/10/21 04:15:42;;;;;;;52.65;8.77;;;;;;;;;;4995865;28;20050;-91
2021/10/21 04:18:08;;;;;;;32.58;7.63;;;;;;;;;;4997195;28;20430;-91
2021/10/21 04:20:33;;;;;;;26.70;7.13;;;;;;;;;;4999234;28;20141;-92
2021/10/21 04:22:58;;;;;;;36.10;8.68;;;;;;;;;;4996041;28;20022;-93
2021/10/21 04:25:24;;;;;;;43.10;8.43;;;;;;;;;;4996163;28;20018;-92
2021/10/21 04:27:49;;;;;;;45.55;10.18;;;;;;;;;;4996392;28;20047;-92
2021/10/21 04:30:14;;;;;;;24.80;8.00;;;;;;;;;;4996997;28;20072;-93
2021/10/21 04:32:40;;;;;;;43.83;8.43;;;;;;;;;;5013446;28;20026;-91
2021/10/21 04:35:07;;;;;;;37.63;8.38;;;;;;;;;;4996028;28;20204;-92
2021/10/21 04:37:32;;;;;;;29.92;7.82;;;;;;;;;;4995946;28;20049;-91
2021/10/21 04:39:57;;;;;;;49.70;11.07;;;;;;;;;;5013595;28;20080;-91
2021/10/21 04:42:22;;;;;;;42.13;9.25;;;;;;;;;;4995915;28;20760;-91
2021/10/21 04:44:48;;;;;;;34.00;9.27;;;;;;;;;;4996032;28;20497;-91
2021/10/21 04:47:14;;;;;;;46.95;9.45;;;;;;;;;;5013411;28;20260;-91
2021/10/21 04:49:39;;;;;;;51.40;11.47;;;;;;;;;;4995785;28;20029;-92
2021/10/21 04:52:04;;;;;;;56.75;12.30;;;;;;;;;;4995893;28;20025;-91
2021/10/21 04:54:29;;;;;;;37.70;9.73;;;;;;;;;;4996945;28;20466;-91
2021/10/21 04:56:55;;;;;;;44.42;10.05;;;;;;;;;;5000827;28;20010;-91
2021/10/21 04:59:20;;;;;;;28.95;9.50;;;;;;;;;;4999277;28;20034;-91
2021/10/21 05:01:45;;;;;;;46.90;11.50;;;;;;;;;;4999179;28;20025;-91
2021/10/21 05:04:10;;;;;;;36.38;10.68;;;;;;;;;;4999446;28;20029;-91
2021/10/21 05:06:36;;;;;;;33.10;9.05;;;;;;;;;;4999423;28;20462;-91
2021/10/21 05:09:01;;;;;;;26.63;9.65;;;;;;;;;;4999686;28;20014;-91
2021/10/21 05:11:27;;;;;;;31.83;10.20;;;;;;;;;;5000239;28;20029;-91
2021/10/21 05:13:52;;;;;;;33.63;10.65;;;;;;;;;;4999120;28;20272;-92
2021/10/21 05:16:17;;;;;;;44.88;11.20;;;;;;;;;;5016615;28;20057;-91
2021/10/21 05:23:55;;;;;;;30.88;5.75;;;;;;;;;;5044555;28;20064;-91
2021/10/21 06:02:53;;;;;;;18.60;4.18;;;;;;;;;;5159942;22;20037;-90
2021/10/21 06:47:30;;;;;;;22.63;4.43;;;;;;;;;;5036888;23;20065;-89
2021/10/21 06:49:58;;;;;;;14.35;3.38;;;;;;;;;;5049766;22;20033;-89
2021/10/21 06:52:25;;;;;;;28.05;3.70;;;;;;;;;;5033523;28;20476;-89
2021/10/21 06:54:55;;;;;;;25.15;4.32;;;;;;;;;;5031510;28;20032;-90
2021/10/21 06:57:23;;;;;;;20.67;4.18;;;;;;;;;;5278488;22;20037;-89
2021/10/21 07:10:05;;;;;;;35.33;4.05;;;;;;;;;;4970117;28;20525;-89
2021/10/21 07:20:26;;;;;;;20.25;4.05;;;;;;;;;;5072295;22;20057;-90
2021/10/21 07:30:21;;;;;;;36.63;5.07;;;;;;;;;;5095031;22;20053;-90
2021/10/21 07:32:48;;;;;;;30.90;4.40;;;;;;;;;;5144109;22;20034;-90
2021/10/21 07:38:06;;;;;;;21.73;3.70;;;;;;;;;;5272549;22;20053;-90
2021/10/21 07:40:36;;;;;;;37.53;4.70;;;;;;;;;;5309483;22;20365;-89
2021/10/21 07:43:07;;;;;;;39.47;4.28;;;;;;;;;;5025954;28;20033;-90
2021/10/21 07:45:38;;;;;;;19.35;4.55;;;;;;;;;;5312381;23;20175;-89
2021/10/21 07:48:07;;;;;;;18.65;3.15;;;;;;;;;;5031059;28;20483;-90
2021/10/21 07:56:20;;;;;;;22.13;4.13;;;;;;;;;;5132394;22;20041;-89
2021/10/21 08:15:28;;;;;;;18.55;5.28;;;;;;;;;;3235185;22;20024;-90
2021/10/21 08:31:37;;;;;;;14.10;3.63;;;;;;;;;;4990360;28;20061;-90
2021/10/21 08:34:11;;;;;;;37.92;4.63;;;;;;;;;;5086976;23;20045;-90
2021/10/21 08:39:15;;;;;;;16.75;4.20;;;;;;;;;;5171628;22;20568;-90
2021/10/21 08:41:54;;;;;;;26.08;5.00;;;;;;;;;;5063344;22;20057;-90
2021/10/21 09:01:36;;;;;;;15.30;3.78;;;;;;;;;;4919500;22;20076;-90
2021/10/21 09:09:24;;;;;;;26.90;4.20;;;;;;;;;;5113664;22;20354;-90
2021/10/21 09:12:02;;;;;;;12.50;2.63;;;;;;;;;;5151658;23;20489;-90
2021/10/21 09:28:07;;;;;;;8.57;1.52;;;;;;;;;;4277383;22;20221;-91
2021/10/21 09:35:59;;;;;;;11.25;1.63;;;;;;;;;;6121630;22;20012;-90
2021/10/21 09:55:00;;;;;;;12.32;2.75;;;;;;;;;;5110939;22;21363;-90
2021/10/21 10:00:07;;;;;;;13.32;2.58;;;;;;;;;;5011438;28;20202;-90
2021/10/21 10:02:38;;;;;;;9.48;2.08;;;;;;;;;;5533271;23;20702;-90
2021/10/21 10:05:07;;;;;;;12.75;2.00;;;;;;;;;;5632222;22;20012;-90
2021/10/21 10:24:19;;;;;;;9.15;2.40;;;;;;;;;;2047768;22;20310;31
2021/10/21 10:26:57;;;;;;;10.52;2.30;;;;;;;;;;4983520;28;20050;-90
2021/10/21 10:29:36;;;;;;;9.48;2.10;;;;;;;;;;4978125;28;20042;-89
2021/10/21 10:54:51;;;;;;;14.20;2.05;;;;;;;;;;5177435;22;20048;-90
2021/10/21 10:57:26;;;;;;;9.30;1.80;;;;;;;;;;5021593;28;20115;-89
2021/10/21 11:26:38;;;;;;;10.15;1.98;;;;;;;;;;2040867;23;20329;-90
2021/10/21 11:29:05;;;;;;;12.05;2.40;;;;;;;;;;3454882;22;20213;-89
2021/10/21 11:31:35;;;;;;;10.95;1.83;;;;;;;;;;5714716;22;20142;-90
2021/10/21 11:34:03;;;;;;;7.28;1.58;;;;;;;;;;5034042;28;20119;-89
2021/10/21 11:36:45;;;;;;;10.35;1.98;;;;;;;;;;5066829;22;20063;-89
2021/10/21 11:39:14;;;;;;;12.10;3.27;;;;;;;;;;5450524;22;20370;-90
2021/10/21 11:44:13;;;;;;;14.15;2.10;;;;;;;;;;5059837;22;20057;-89
2021/10/21 11:46:41;;;;;;;10.18;1.80;;;;;;;;;;5033737;28;21016;-89
2021/10/21 11:49:06;;;;;;;8.48;2.47;;;;;;;;;;5033359;28;20071;-89
2021/10/21 11:51:36;;;;;;;8.05;2.20;;;;;;;;;;5033253;28;20025;-89
2021/10/21 11:54:09;;;;;;;13.57;2.03;;;;;;;;;;5034858;28;20112;-89
2021/10/21 11:56:38;;;;;;;14.00;2.30;;;;;;;;;;5033378;28;20025;-89
2021/10/21 11:59:04;;;;;;;11.48;2.42;;;;;;;;;;5031663;28;20398;-89
2021/10/21 12:01:30;;;;;;;13.77;2.42;;;;;;;;;;5033087;28;20025;-89
2021/10/21 12:03:58;;;;;;;12.02;2.15;;;;;;;;;;5028010;28;20017;-89
2021/10/21 12:09:13;;;;;;;11.85;2.20;;;;;;;;;;1255306;22;21937;31
2021/10/21 12:17:10;;;;;;;10.90;2.38;;;;;;;;;;2420720;22;20020;31
2021/10/21 12:19:36;;;;;;;16.88;3.33;;;;;;;;;;5031512;23;20049;-90
2021/10/21 12:22:16;;;;;;;12.27;2.95;;;;;;;;;;5038397;28;20028;-90
2021/10/21 12:24:42;;;;;;;9.57;3.45;;;;;;;;;;5116704;23;20894;-90
2021/10/21 12:27:08;;;;;;;9.40;2.20;;;;;;;;;;5034284;28;20009;-90
2021/10/21 12:42:19;;;;;;;7.88;1.55;;;;;;;;;;4974472;28;20054;-89
2021/10/21 12:44:44;;;;;;;6.90;1.48;;;;;;;;;;4959752;28;20552;-89
2021/10/21 12:47:37;;;;;;;4.00;2.03;;;;;;;;;;4521777;22;20229;-89
2021/10/21 12:50:15;;;;;;;4.60;1.73;;;;;;;;;;4992524;28;20052;-89
2021/10/21 12:52:45;;;;;;;6.20;1.83;;;;;;;;;;4997700;28;20034;-89
2021/10/21 12:55:19;;;;;;;4.70;1.60;;;;;;;;;;5216433;22;20049;-89
2021/10/21 12:57:51;;;;;;;7.90;2.20;;;;;;;;;;5040713;28;20048;-89
2021/10/21 13:00:32;;;;;;;6.70;1.42;;;;;;;;;;5021308;28;20033;-89
2021/10/21 13:03:04;;;;;;;5.17;1.40;;;;;;;;;;5034362;28;20094;-89
2021/10/21 13:05:32;;;;;;;7.72;1.90;;;;;;;;;;5015354;28;20378;-89
2021/10/21 13:08:00;;;;;;;6.25;1.98;;;;;;;;;;5035803;28;20032;-89
2021/10/21 13:10:27;;;;;;;8.85;2.28;;;;;;;;;;5032313;28;20104;-89
2021/10/21 13:13:11;;;;;;;35.30;3.10;;;;;;;;;;5034836;28;20465;-90
2021/10/21 13:26:09;;;;;;;6.10;1.60;;;;;;;;;;5055875;22;20067;-89
2021/10/21 13:28:35;;;;;;;10.35;1.70;;;;;;;;;;5036792;28;20017;-89
2021/10/21 13:31:07;;;;;;;6.88;1.30;;;;;;;;;;5021933;28;20017;-89
2021/10/21 13:36:13;;;;;;;6.68;1.65;;;;;;;;;;5068333;22;20128;-88
2021/10/21 13:44:00;;;;;;;6.38;1.67;;;;;;;;;;1972306;22;20218;-88
2021/10/21 13:46:28;;;;;;;7.95;1.80;;;;;;;;;;5289465;22;20142;-88
2021/10/21 13:48:59;;;;;;;10.02;1.58;;;;;;;;;;5035144;28;20606;-88
2021/10/21 13:54:08;;;;;;;13.38;2.20;;;;;;;;;;2339648;22;20183;-88
2021/10/21 14:10:23;;;;;;;20.05;2.10;;;;;;;;;;3491692;22;20111;31
2021/10/21 14:15:20;;;;;;;15.88;2.53;;;;;;;;;;5572609;22;20063;-89
2021/10/21 14:17:48;;;;;;;16.33;3.42;;;;;;;;;;5022845;28;20025;-89
2021/10/21 14:22:58;;;;;;;17.58;3.03;;;;;;;;;;5069873;22;20071;-89
2021/10/21 14:28:28;;;;;;;15.48;3.20;;;;;;;;;;5027163;28;20115;-89
2021/10/21 14:35:54;;;;;;;27.55;3.92;;;;;;;;;;5036934;22;20053;-89
2021/10/21 14:40:56;;;;;;;21.48;3.65;;;;;;;;;;5720790;22;20123;-89
2021/10/21 14:48:28;;;;;;;;;;;;;;;;;;5059982;22;20028;-89
2021/10/21 14:50:57;;;;;;;20.08;3.08;;;;;;;;;;5058546;22;19925;-89
2021/10/21 14:53:29;;;;;;;28.33;5.30;;;;;;;;;;5032734;28;20052;-88
2021/10/21 14:56:01;;;;;;;23.35;3.50;;;;;;;;;;5027749;28;20714;-88
2021/10/21 14:58:26;;;;;;;21.20;5.28;;;;;;;;;;5032714;28;20099;-88
2021/10/21 15:01:05;;;;;;;19.35;3.42;;;;;;;;;;5029071;28;20036;-89
2021/10/21 15:03:42;;;;;;;17.92;2.95;;;;;;;;;;4727361;22;16833958;-89
2021/10/21 15:22:33;;;;;;;21.88;3.72;;;;;;;;;;5050407;28;20051;-88
2021/10/21 15:27:37;;;;;;;23.45;3.53;;;;;;;;;;5106570;22;20061;-88
2021/10/21 15:32:37;;;;;;;22.17;3.72;;;;;;;;;;5047375;28;20373;-88
2021/10/21 15:35:05;;;;;;;22.92;3.75;;;;;;;;;;5032837;28;20021;-89
2021/10/21 15:37:32;;;;;;;29.15;5.05;;;;;;;;;;5025615;28;20104;-88
2021/10/21 15:40:02;;;;;;;23.15;4.68;;;;;;;;;;5026304;28;20044;-88
2021/10/21 15:48:23;;;;;;;21.45;3.30;;;;;;;;;;5044761;28;20380;-88
2021/10/21 15:50:59;;;;;;;14.82;3.58;;;;;;;;;;5068934;23;20057;-88
2021/10/21 16:12:18;;;;;;;12.23;2.97;;;;;;;;;;5052797;28;20012;-89
2021/10/21 16:15:32;;;;;;;14.48;2.88;;;;;;;;;;5034437;28;20029;-89
2021/10/21 16:17:38;;;;;;;20.48;3.75;;;;;;;;;;5074366;22;20095;-88
2021/10/21 16:20:07;;;;;;;8.38;2.20;;;;;;;;;;5031342;28;20524;-89
2021/10/21 16:22:45;;;;;;;15.80;2.67;;;;;;;;;;5033344;28;20017;-89
2021/10/21 16:33:00;;;;;;;21.50;3.78;;;;;;;;;;1831178;23;20224;-88
2021/10/21 16:44:13;;;;;;;20.77;3.28;;;;;;;;;;5407014;22;20725;-88
2021/10/21 16:46:46;;;;;;;25.48;3.33;;;;;;;;;;4296845;22;21863;-89
2021/10/21 16:49:17;;;;;;;20.25;3.05;;;;;;;;;;5009421;28;20391;-89
2021/10/21 16:51:43;;;;;;;18.25;3.65;;;;;;;;;;4996387;28;20022;-89
2021/10/21 16:54:09;;;;;;;14.65;3.15;;;;;;;;;;4976804;28;20394;-89
2021/10/21 16:56:34;;;;;;;20.50;3.03;;;;;;;;;;5076523;23;20056;-89
2021/10/21 16:59:01;;;;;;;24.92;4.03;;;;;;;;;;5036087;28;20116;-89
2021/10/21 17:01:30;;;;;;;10.77;2.80;;;;;;;;;;5055384;28;20016;-88
2021/10/21 17:03:56;;;;;;;28.45;3.17;;;;;;;;;;5061475;28;20013;-88
2021/10/21 17:06:21;;;;;;;16.88;3.40;;;;;;;;;;5056188;28;20020;-87
2021/10/21 17:08:47;;;;;;;18.27;3.65;;;;;;;;;;5058354;28;20044;-87
2021/10/21 17:11:13;;;;;;;23.25;3.75;;;;;;;;;;5057926;28;20795;-88
2021/10/21 17:13:40;;;;;;;20.50;4.00;;;;;;;;;;5053967;28;20016;-88
2021/10/21 17:16:13;;;;;;;15.20;3.65;;;;;;;;;;5058417;22;20480;-89
2021/10/21 17:21:10;;;;;;;18.60;3.35;;;;;;;;;;5055816;22;20057;-89
2021/10/21 17:23:36;;;;;;;23.33;3.75;;;;;;;;;;5036380;28;20835;-88
2021/10/21 17:26:03;;;;;;;26.40;5.05;;;;;;;;;;5037313;28;20354;-89
2021/10/21 17:28:32;;;;;;;18.55;4.15;;;;;;;;;;5050150;23;20064;-88
2021/10/21 17:30:59;;;;;;;31.33;4.25;;;;;;;;;;5036562;28;20029;-88
2021/10/21 17:33:26;;;;;;;28.30;4.82;;;;;;;;;;5036970;28;20017;-88
2021/10/21 17:35:52;;;;;;;30.08;5.80;;;;;;;;;;5035629;28;20025;-89
2021/10/21 17:38:22;;;;;;;19.30;3.70;;;;;;;;;;5033539;28;20017;-89
2021/10/21 17:40:49;;;;;;;30.33;6.28;;;;;;;;;;5030005;28;20033;-89
2021/10/21 17:43:18;;;;;;;14.63;3.20;;;;;;;;;;5034695;28;20111;-89
2021/10/21 17:45:47;;;;;;;21.92;4.18;;;;;;;;;;5036375;28;20380;-89
2021/10/21 17:48:14;;;;;;;16.67;3.45;;;;;;;;;;5029403;28;20032;-89
2021/10/21 17:50:41;;;;;;;14.60;3.22;;;;;;;;;;5054654;22;20108;-90
2021/10/21 17:55:44;;;;;;;14.73;3.70;;;;;;;;;;5070494;22;20075;-89
2021/10/21 17:58:23;;;;;;;18.08;3.55;;;;;;;;;;5461258;22;20014;-89
2021/10/21 18:13:28;;;;;;;20.25;3.17;;;;;;;;;;5053654;28;20049;-89
2021/10/21 18:15:53;;;;;;;14.68;2.55;;;;;;;;;;5055172;28;20010;-89
2021/10/21 18:18:18;;;;;;;13.07;3.20;;;;;;;;;;5037408;28;20021;-88
2021/10/21 18:20:44;;;;;;;23.98;3.78;;;;;;;;;;5037178;28;20283;-89
2021/10/21 18:23:10;;;;;;;19.02;2.83;;;;;;;;;;5038476;28;20140;-90
2021/10/21 18:25:36;;;;;;;15.63;2.42;;;;;;;;;;5037207;28;20425;-90
2021/10/21 18:28:02;;;;;;;17.70;3.22;;;;;;;;;;5036784;28;20075;-90
2021/10/21 18:30:28;;;;;;;11.15;2.78;;;;;;;;;;5054676;28;20088;-89
2021/10/21 18:32:53;;;;;;;19.33;3.20;;;;;;;;;;5054769;28;20524;-90
2021/10/21 18:35:19;;;;;;;14.98;2.80;;;;;;;;;;5036890;28;20129;-90
2021/10/21 18:37:44;;;;;;;20.63;3.10;;;;;;;;;;5036721;28;20104;-90
2021/10/21 18:40:10;;;;;;;15.55;2.30;;;;;;;;;;5054516;28;20064;-90
2021/10/21 18:42:35;;;;;;;13.93;2.58;;;;;;;;;;5036655;28;20445;-89
2021/10/21 18:45:00;;;;;;;12.63;2.38;;;;;;;;;;5054360;28;20096;-89
2021/10/21 18:47:26;;;;;;;12.68;3.35;;;;;;;;;;5036713;28;20009;-89
2021/10/21 18:49:53;;;;;;;23.05;3.33;;;;;;;;;;5054392;28;20018;-89
2021/10/21 18:52:18;;;;;;;20.13;3.67;;;;;;;;;;5036483;28;20012;-89
2021/10/21 18:54:44;;;;;;;12.68;2.65;;;;;;;;;;5036599;28;20062;-89
2021/10/21 18:57:11;;;;;;;13.25;3.30;;;;;;;;;;5054245;28;20021;-89
2021/10/21 18:59:37;;;;;;;16.30;3.85;;;;;;;;;;5036137;28;20405;-89
2021/10/21 19:02:03;;;;;;;10.85;3.50;;;;;;;;;;5036766;28;20013;-89
2021/10/21 19:04:28;;;;;;;16.05;2.95;;;;;;;;;;5036405;28;20024;-89
2021/10/21 19:06:54;;;;;;;21.92;3.22;;;;;;;;;;5036552;28;20017;-89
2021/10/21 19:09:19;;;;;;;7.97;2.30;;;;;;;;;;5036390;28;20089;-89
2021/10/21 19:11:44;;;;;;;11.60;2.72;;;;;;;;;;5036083;28;20053;-89
2021/10/21 19:14:11;;;;;;;19.35;3.50;;;;;;;;;;5053113;28;20462;-89
2021/10/21 19:16:37;;;;;;;8.52;2.90;;;;;;;;;;5036309;28;20070;-89
2021/10/21 19:19:05;;;;;;;11.65;2.70;;;;;;;;;;5053956;28;20017;-89
2021/10/21 19:21:30;;;;;;;9.45;2.15;;;;;;;;;;5036416;28;20519;-89
2021/10/21 19:23:56;;;;;;;13.18;2.50;;;;;;;;;;5035958;28;20056;-89
2021/10/21 19:26:21;;;;;;;16.45;2.40;;;;;;;;;;5053861;28;20028;-89
2021/10/21 19:28:46;;;;;;;12.32;5.30;;;;;;;;;;5053826;28;20071;-89
2021/10/21 19:31:12;;;;;;;12.23;2.67;;;;;;;;;;5053705;28;20495;-89
2021/10/21 19:33:38;;;;;;;14.63;4.38;;;;;;;;;;5036127;28;20086;-89
2021/10/21 19:36:03;;;;;;;15.95;6.47;;;;;;;;;;5035845;28;20013;-89
2021/10/21 19:38:29;;;;;;;11.60;4.70;;;;;;;;;;5035875;28;20028;-89
2021/10/21 19:40:54;;;;;;;8.70;3.63;;;;;;;;;;5036206;28;20492;-89
2021/10/21 19:43:19;;;;;;;5.93;1.95;;;;;;;;;;5035856;28;20451;-90
2021/10/21 19:45:45;;;;;;;7.30;1.85;;;;;;;;;;5035889;28;20023;-89
2021/10/21 19:48:10;;;;;;;11.55;3.70;;;;;;;;;;5035949;28;20021;-89
2021/10/21 19:50:36;;;;;;;12.15;1.83;;;;;;;;;;5035658;28;20110;-90
2021/10/21 19:53:01;;;;;;;9.80;1.90;;;;;;;;;;5035853;28;20504;-90
2021/10/21 19:55:26;;;;;;;16.65;3.10;;;;;;;;;;5053713;28;20169;-90
2021/10/21 19:57:52;;;;;;;13.88;3.20;;;;;;;;;;5035662;28;20465;-89
2021/10/21 20:00:17;;;;;;;17.50;3.10;;;;;;;;;;5035351;28;20064;-90
2021/10/21 20:02:44;;;;;;;10.45;2.22;;;;;;;;;;5035606;28;20021;-90
2021/10/21 20:05:10;;;;;;;16.17;3.20;;;;;;;;;;5035595;28;20090;-89
2021/10/21 20:07:35;;;;;;;18.23;3.50;;;;;;;;;;5035673;28;20021;-89
2021/10/21 20:10:02;;;;;;;13.63;2.80;;;;;;;;;;5035531;28;20632;-89
2021/10/21 20:12:36;;;;;;;21.02;2.45;;;;;;;;;;5035251;28;20056;-90
2021/10/21 20:15:02;;;;;;;22.98;3.35;;;;;;;;;;5035440;28;20032;-90
2021/10/21 20:17:28;;;;;;;11.68;2.53;;;;;;;;;;5035803;28;20043;-90
2021/10/21 20:19:54;;;;;;;17.15;3.33;;;;;;;;;;5035304;28;20025;-89
2021/10/21 20:22:19;;;;;;;20.27;3.28;;;;;;;;;;5035693;28;20021;-90
2021/10/21 20:24:44;;;;;;;18.80;3.13;;;;;;;;;;5037095;28;20079;-90
2021/10/21 20:27:09;;;;;;;13.80;2.28;;;;;;;;;;5039344;28;20051;-90
2021/10/21 20:29:35;;;;;;;16.88;2.60;;;;;;;;;;5057198;28;20017;-89
2021/10/21 20:32:00;;;;;;;13.30;3.38;;;;;;;;;;5056990;28;20044;-89
2021/10/21 20:34:25;;;;;;;13.33;2.70;;;;;;;;;;5039081;28;20017;-89
2021/10/21 20:36:51;;;;;;;14.77;3.13;;;;;;;;;;5039354;28;20055;-89
2021/10/21 20:39:16;;;;;;;20.52;4.25;;;;;;;;;;5057031;28;20053;-89
2021/10/21 20:41:42;;;;;;;10.93;2.67;;;;;;;;;;5039143;28;20381;-90
2021/10/21 20:44:07;;;;;;;11.88;2.08;;;;;;;;;;5039123;28;20059;-89
2021/10/21 20:46:32;;;;;;;13.88;3.00;;;;;;;;;;5038910;28;20104;-89
2021/10/21 20:48:58;;;;;;;11.90;2.08;;;;;;;;;;5056991;28;20469;-89
2021/10/21 20:51:23;;;;;;;13.15;3.50;;;;;;;;;;5056687;28;20021;-89
2021/10/21 20:53:48;;;;;;;14.30;2.58;;;;;;;;;;5038846;28;20100;-89
2021/10/21 20:56:14;;;;;;;13.40;3.13;;;;;;;;;;5056708;28;20017;-89
2021/10/21 20:58:39;;;;;;;18.98;2.92;;;;;;;;;;5038869;28;20252;-89
2021/10/21 21:01:04;;;;;;;17.00;3.40;;;;;;;;;;5038758;28;20040;-89
2021/10/21 21:03:29;;;;;;;14.67;2.80;;;;;;;;;;5056641;28;20013;-89
2021/10/21 21:05:55;;;;;;;23.15;3.75;;;;;;;;;;5038583;28;20248;-89
2021/10/21 21:08:20;;;;;;;23.63;3.38;;;;;;;;;;5056428;28;20376;-89
2021/10/21 21:10:45;;;;;;;19.75;3.83;;;;;;;;;;5038705;28;20028;-90
2021/10/21 21:13:14;;;;;;;22.92;3.42;;;;;;;;;;5038519;28;20064;-90
2021/10/21 21:15:40;;;;;;;20.13;3.63;;;;;;;;;;5038413;28;20362;-90
2021/10/21 21:18:05;;;;;;;23.45;4.68;;;;;;;;;;5055982;28;20079;-90
2021/10/21 21:20:30;;;;;;;25.85;3.47;;;;;;;;;;5038707;28;20082;-90
2021/10/21 21:22:57;;;;;;;22.65;3.40;;;;;;;;;;5056709;28;20098;-90
2021/10/21 21:25:22;;;;;;;28.88;4.18;;;;;;;;;;5038448;28;20044;-90
2021/10/21 21:27:47;;;;;;;28.38;5.85;;;;;;;;;;5038366;28;20057;-89
2021/10/21 21:30:13;;;;;;;25.52;5.20;;;;;;;;;;5038160;28;20017;-90
2021/10/21 21:32:38;;;;;;;29.83;5.32;;;;;;;;;;5038269;28;20020;-90
2021/10/21 21:35:04;;;;;;;31.65;5.13;;;;;;;;;;5037916;28;20021;-90
2021/10/21 21:37:29;;;;;;;29.73;4.65;;;;;;;;;;5037432;28;20021;-90
2021/10/21 21:39:55;;;;;;;29.27;5.03;;;;;;;;;;5038006;28;20035;-90
2021/10/21 21:42:20;;;;;;;19.45;4.25;;;;;;;;;;5056381;28;20435;-90
2021/10/21 21:44:45;;;;;;;32.72;4.82;;;;;;;;;;5038165;28;20120;-90
2021/10/21 21:47:10;;;;;;;20.42;3.75;;;;;;;;;;5037746;28;20017;-91